createdAt,value
2022-08-23T00:07:01.356Z,204.95
2022-08-23T00:14:17.462Z,183.95
2022-08-23T00:21:19.175Z,183.02
2022-08-23T00:28:20.822Z,269.77
2022-08-23T00:35:26.549Z,151.38
2022-08-23T00:42:50.424Z,152.10
2022-08-23T00:50:23.453Z,262.52
2022-08-23T00:57:25.879Z,162.50
2022-08-23T01:04:28.690Z,162.07
2022-08-23T01:11:40.882Z,179.38
2022-08-23T01:18:43.272Z,222.93
2022-08-23T01:25:44.891Z,266.02
2022-08-23T01:32:54.657Z,271.55
2022-08-23T01:46:57.978Z,167.85
2022-08-23T01:53:59.873Z,160.23
2022-08-23T02:01:04.565Z,153.20
2022-08-23T02:08:25.965Z,144.73
2022-08-23T02:15:29.667Z,150.60
2022-08-23T02:22:31.754Z,141.73
2022-08-23T02:29:35.141Z,141.32
2022-08-23T02:36:41.243Z,139.27
2022-08-23T02:43:44.506Z,142.32
2022-08-23T02:50:46.766Z,140.00
2022-08-23T02:57:48.523Z,141.00
2022-08-23T03:04:50.167Z,145.00
2022-08-23T03:11:52.425Z,143.18
2022-08-23T03:18:55.776Z,142.65
2022-08-23T03:25:58.114Z,132.35
2022-08-23T03:33:03.119Z,131.65
2022-08-23T03:40:07.818Z,133.43
2022-08-23T03:47:09.613Z,129.90
2022-08-23T03:54:11.862Z,130.02
2022-08-23T04:01:13.913Z,124.93
2022-08-23T04:08:18.085Z,124.45
2022-08-23T04:15:31.528Z,127.20
2022-08-23T04:22:33.529Z,129.85
2022-08-23T04:29:36.713Z,128.25
2022-08-23T04:36:40.906Z,135.93
2022-08-23T04:43:48.711Z,158.95
2022-08-23T04:50:50.724Z,136.02
2022-08-23T04:57:54.581Z,134.70
2022-08-23T05:05:00.426Z,151.73
2022-08-23T05:12:02.567Z,145.15
2022-08-23T05:19:06.276Z,125.50
2022-08-23T05:26:14.520Z,139.73
2022-08-23T05:33:17.120Z,140.95
2022-08-23T05:40:19.019Z,130.98
2022-08-23T05:47:35.807Z,140.70
2022-08-23T05:55:04.830Z,141.02
2022-08-23T06:02:15.418Z,149.70
2022-08-23T06:09:17.804Z,129.77
2022-08-23T06:16:21.688Z,132.50
2022-08-23T06:23:23.417Z,130.27
2022-08-23T06:30:25.104Z,122.45
2022-08-23T06:37:29.854Z,129.30
2022-08-23T06:44:39.673Z,119.55
2022-08-23T06:52:09.198Z,120.30
2022-08-23T06:59:25.366Z,121.68
2022-08-23T07:06:39.275Z,121.13
2022-08-23T07:13:41.195Z,108.68
2022-08-23T07:20:42.871Z,106.03
2022-08-23T07:27:44.902Z,101.53
2022-08-23T07:34:48.347Z,87.03
2022-08-23T07:41:50.186Z,91.72
2022-08-23T07:48:54.948Z,89.65
2022-08-23T07:56:07.002Z,79.90
2022-08-23T08:03:27.903Z,85.55
2022-08-23T08:10:56.498Z,80.97
2022-08-23T08:17:58.554Z,78.68
2022-08-23T08:25:34.205Z,67.10
2022-08-23T08:32:46.726Z,60.28
2022-08-23T08:39:49.667Z,45.17
2022-08-23T08:46:54.457Z,39.65
2022-08-23T08:53:56.754Z,36.78
2022-08-23T09:01:11.291Z,33.38
2022-08-23T09:08:20.243Z,31.00
2022-08-23T09:15:31.063Z,30.20
2022-08-23T09:22:44.004Z,29.58
2022-08-23T09:29:57.421Z,23.52
2022-08-23T09:37:19.335Z,40.25
2022-08-23T09:44:41.999Z,21.83
2022-08-23T09:51:46.763Z,23.85
2022-08-23T09:58:53.617Z,24.90
2022-08-23T10:06:11.601Z,18.85
2022-08-23T10:13:13.735Z,18.65
2022-08-23T10:20:45.408Z,20.13
2022-08-23T10:28:15.429Z,16.10
2022-08-23T10:35:35.778Z,15.85
2022-08-23T10:43:06.845Z,16.23
2022-08-23T10:50:13.511Z,12.90
2022-08-23T10:57:17.537Z,13.30
2022-08-23T11:04:50.479Z,15.20
2022-08-23T11:12:23.306Z,17.33
2022-08-23T11:19:58.159Z,13.38
2022-08-23T11:27:06.542Z,13.35
2022-08-23T11:34:27.914Z,13.25
2022-08-23T11:41:55.865Z,11.48
2022-08-23T11:49:29.309Z,12.48
2022-08-23T11:56:46.692Z,11.30
2022-08-23T12:03:52.174Z,13.48
2022-08-23T12:10:53.822Z,17.33
2022-08-23T12:17:56.435Z,18.17
2022-08-23T12:25:04.348Z,13.57
2022-08-23T12:39:29.561Z,12.70
2022-08-23T12:46:40.524Z,14.95
2022-08-23T12:53:45.386Z,12.77
2022-08-23T13:00:54.367Z,13.43
2022-08-23T13:07:56.051Z,13.93
2022-08-23T13:15:01.428Z,12.02
2022-08-23T13:22:18.996Z,11.80
2022-08-23T13:29:22.783Z,16.95
2022-08-23T13:36:24.434Z,16.42
2022-08-23T13:43:37.875Z,16.67
2022-08-23T13:50:39.833Z,14.60
2022-08-23T13:57:41.539Z,14.70
2022-08-23T14:04:43.245Z,13.93
2022-08-23T14:11:44.996Z,13.63
2022-08-23T14:26:08.336Z,15.57
2022-08-23T14:33:09.963Z,12.57
2022-08-23T14:40:11.842Z,11.80
2022-08-23T14:47:13.483Z,14.05
2022-08-23T14:54:18.382Z,11.95
2022-08-23T15:01:20.650Z,13.18
2022-08-23T15:08:23.838Z,14.20
2022-08-23T15:15:25.551Z,13.93
2022-08-23T15:22:27.302Z,29.45
2022-08-23T15:29:28.959Z,12.95
2022-08-23T15:36:31.152Z,15.13
2022-08-23T15:43:35.098Z,11.82
2022-08-23T15:50:36.902Z,11.35
2022-08-23T15:57:44.246Z,13.05
2022-08-23T16:04:45.972Z,10.57
2022-08-23T16:11:47.935Z,15.23
2022-08-23T16:18:51.660Z,10.75
2022-08-23T16:25:55.887Z,15.57
2022-08-23T16:33:01.140Z,14.97
2022-08-23T16:40:05.117Z,12.88
2022-08-23T16:47:07.287Z,11.98
2022-08-23T16:54:09.059Z,11.23
2022-08-23T17:01:14.899Z,11.68
2022-08-23T17:08:16.611Z,13.98
2022-08-23T17:15:24.912Z,13.07
2022-08-23T17:22:26.593Z,22.23
2022-08-23T17:29:28.225Z,12.18
2022-08-23T17:36:46.178Z,17.77
2022-08-23T17:43:49.582Z,17.90
2022-08-23T17:50:51.223Z,28.40
2022-08-23T17:57:57.655Z,17.45
2022-08-23T18:05:06.596Z,17.75
2022-08-23T18:12:08.376Z,22.02
2022-08-23T18:19:13.196Z,24.20
2022-08-23T18:26:33.884Z,28.30
2022-08-23T18:33:47.155Z,19.30
2022-08-23T18:40:49.117Z,19.65
2022-08-23T18:47:50.779Z,26.60
2022-08-23T18:54:52.458Z,18.20
2022-08-23T19:01:55.134Z,19.58
2022-08-23T19:08:56.975Z,21.85
2022-08-23T19:15:59.372Z,28.70
2022-08-23T19:23:01.298Z,21.60
2022-08-23T19:30:04.691Z,33.00
2022-08-23T19:37:10.739Z,27.50
2022-08-23T19:44:19.570Z,26.15
2022-08-23T19:51:21.327Z,15.70
2022-08-23T19:58:22.954Z,105.20
2022-08-23T20:05:24.609Z,27.42
2022-08-23T20:12:28.820Z,22.27
2022-08-23T20:19:31.307Z,25.23
2022-08-23T20:26:40.699Z,21.25
2022-08-23T20:33:46.262Z,24.52
2022-08-23T20:40:48.242Z,25.77
2022-08-23T20:47:49.981Z,30.60
2022-08-23T20:54:52.143Z,24.77
2022-08-23T21:01:53.938Z,32.58
2022-08-23T21:08:58.782Z,45.92
2022-08-23T21:16:00.916Z,39.63
2022-08-23T21:23:02.759Z,45.33
2022-08-23T21:30:06.047Z,46.00
2022-08-23T21:37:07.688Z,45.20
2022-08-23T21:44:15.236Z,53.10
2022-08-23T21:51:16.883Z,63.83
2022-08-23T21:58:18.530Z,69.00
2022-08-23T22:05:20.167Z,69.68
2022-08-23T22:12:24.852Z,73.07
2022-08-23T22:19:26.929Z,77.20
2022-08-23T22:26:29.195Z,79.78
2022-08-23T22:33:30.944Z,95.32
2022-08-23T22:40:32.598Z,103.60
2022-08-23T22:47:34.259Z,103.00
2022-08-23T22:54:35.886Z,117.25
2022-08-23T23:01:40.409Z,125.03
2022-08-23T23:08:42.342Z,131.52
2022-08-23T23:15:43.959Z,125.53
2022-08-23T23:22:45.575Z,125.40
2022-08-23T23:29:47.187Z,119.38
2022-08-23T23:36:48.786Z,120.70
2022-08-23T23:43:50.467Z,127.95
2022-08-23T23:50:52.092Z,118.72
2022-08-23T23:57:53.862Z,126.15
